Time,TemperatureF,DewpointF,PressureIn,WindDirection,WindDirectionDegrees,WindSpeedMPH,WindSpeedGustMPH,Humidity,HourlyPrecipIn,Conditions,Clouds,dailyrainin,SoftwareType,DateUTC
2013-01-20 00:00:00,12.0,7.8,30.52,North,360,2.0,15.0,83,0.00,,,-99.99,Weather View 32 v60,2013-01-20 06:00:00,
2013-01-20 00:15:00,11.0,7.6,30.51,NNW,337,2.0,15.0,86,0.00,,,-99.99,Weather View 32 v60,2013-01-20 06:15:00,
2013-01-20 00:30:00,11.0,7.6,30.52,NNE,22,0.0,15.0,86,0.00,,,-99.99,Weather View 32 v60,2013-01-20 06:30:00,
2013-01-20 00:45:00,11.0,7.4,30.51,WNW,292,0.0,15.0,85,0.00,,,-99.99,Weather View 32 v60,2013-01-20 06:45:00,
2013-01-20 01:00:00,11.0,6.9,30.52,NNW,337,1.0,15.0,83,0.00,,,-99.99,Weather View 32 v60,2013-01-20 07:00:00,
2013-01-20 01:15:00,10.0,6.1,30.52,NNW,337,0.0,15.0,84,0.00,,,-99.99,Weather View 32 v60,2013-01-20 07:15:00,
2013-01-20 01:30:00,10.0,7.2,30.52,NW,315,4.0,15.0,88,0.00,,,-99.99,Weather View 32 v60,2013-01-20 07:30:00,
2013-01-20 01:45:00,10.0,7.4,30.52,NNE,22,7.0,15.0,89,0.00,,,-99.99,Weather View 32 v60,2013-01-20 07:45:00,
2013-01-20 02:00:00,10.0,7.7,30.51,NNW,337,0.0,11.0,90,0.00,,,-99.99,Weather View 32 v60,2013-01-20 08:00:00,
2013-01-20 02:15:00,10.0,7.7,30.52,NNW,337,0.0,11.0,90,0.00,,,-99.99,Weather View 32 v60,2013-01-20 08:15:00,
2013-01-20 02:30:00,9.0,7.2,30.52,North,360,0.0,9.0,92,0.00,,,-99.99,Weather View 32 v60,2013-01-20 08:30:00,
2013-01-20 02:45:00,9.0,7.9,30.52,NNW,337,4.0,8.0,95,0.00,,,-99.99,Weather View 32 v60,2013-01-20 08:45:00,
2013-01-20 02:51:00,9.0,7.9,30.52,NNW,337,4.0,8.0,95,0.00,,,-99.99,Weather View 32 v60,2013-01-20 08:51:00,
2013-01-20 03:00:00,9.0,8.1,30.52,NE,45,0.0,8.0,96,0.00,,,-99.99,Weather View 32 v60,2013-01-20 09:00:00,
2013-01-20 03:15:00,10.0,8.6,30.52,NNW,337,0.0,10.0,94,0.00,,,-99.99,Weather View 32 v60,2013-01-20 09:15:00,
2013-01-20 03:30:00,10.0,5.9,30.52,NNE,22,1.0,10.0,83,0.00,,,-99.99,Weather View 32 v60,2013-01-20 09:30:00,
2013-01-20 03:45:00,10.0,6.9,30.51,NE,45,0.0,10.0,87,0.00,,,-99.99,Weather View 32 v60,2013-01-20 09:45:00,
2013-01-20 03:52:00,10.0,6.9,30.51,NE,45,0.0,10.0,87,0.00,,,-99.99,Weather View 32 v60,2013-01-20 09:52:00,
2013-01-20 04:00:00,10.0,5.9,30.50,NNE,22,0.0,10.0,83,0.00,,,-99.99,Weather View 32 v60,2013-01-20 10:00:00,
2013-01-20 04:15:00,10.0,6.1,30.51,NNE,22,0.0,10.0,84,0.00,,,-99.99,Weather View 32 v60,2013-01-20 10:15:00,
2013-01-20 04:30:00,10.0,6.7,30.51,NW,315,1.0,8.0,86,0.00,,,-99.99,Weather View 32 v60,2013-01-20 10:30:00,
2013-01-20 04:45:00,10.0,6.7,30.51,NW,315,0.0,7.0,86,0.00,,,-99.99,Weather View 32 v60,2013-01-20 10:45:00,
2013-01-20 04:52:00,10.0,6.7,30.51,NW,315,0.0,7.0,86,0.00,,,-99.99,Weather View 32 v60,2013-01-20 10:52:00,
2013-01-20 05:00:00,10.0,6.4,30.51,NNW,337,0.0,7.0,85,0.00,,,-99.99,Weather View 32 v60,2013-01-20 11:00:00,
2013-01-20 05:15:00,10.0,5.9,30.51,NNW,337,0.0,7.0,83,0.00,,,-99.99,Weather View 32 v60,2013-01-20 11:15:00,
2013-01-20 05:30:00,10.0,5.9,30.52,West,270,0.0,7.0,83,0.00,,,-99.99,Weather View 32 v60,2013-01-20 11:30:00,
2013-01-20 05:45:00,10.0,6.4,30.51,WNW,292,0.0,7.0,85,0.00,,,-99.99,Weather View 32 v60,2013-01-20 11:45:00,
2013-01-20 05:53:00,10.0,6.4,30.51,WNW,292,0.0,7.0,85,0.00,,,-99.99,Weather View 32 v60,2013-01-20 11:53:00,
2013-01-20 06:00:00,10.0,6.7,30.51,NNW,337,2.0,7.0,86,0.00,,,-99.99,Weather View 32 v60,2013-01-20 12:00:00,
2013-01-20 06:15:00,10.0,7.2,30.52,NNW,337,0.0,7.0,88,0.00,,,-99.99,Weather View 32 v60,2013-01-20 12:15:00,
2013-01-20 06:30:00,10.0,6.9,30.52,ENE,67,0.0,7.0,87,0.00,,,-99.99,Weather View 32 v60,2013-01-20 12:30:00,
2013-01-20 06:45:00,10.0,5.6,30.52,NNE,22,0.0,7.0,82,0.00,,,-99.99,Weather View 32 v60,2013-01-20 12:45:00,
2013-01-20 06:53:00,10.0,5.6,30.52,NNE,22,0.0,7.0,82,0.00,,,-99.99,Weather View 32 v60,2013-01-20 12:53:00,
2013-01-20 07:00:00,10.0,5.6,30.52,NNW,337,1.0,8.0,82,0.00,,,-99.99,Weather View 32 v60,2013-01-20 13:00:00,
2013-01-20 07:15:00,10.0,5.9,30.52,NE,45,0.0,8.0,83,0.00,,,-99.99,Weather View 32 v60,2013-01-20 13:15:00,
2013-01-20 07:30:00,10.0,6.4,30.52,ENE,67,0.0,8.0,85,0.00,,,-99.99,Weather View 32 v60,2013-01-20 13:30:00,
2013-01-20 07:45:00,10.0,6.1,30.52,NNE,22,0.0,8.0,84,0.00,,,-99.99,Weather View 32 v60,2013-01-20 13:45:00,
2013-01-20 07:54:00,10.0,6.1,30.52,NNE,22,0.0,8.0,84,0.00,,,-99.99,Weather View 32 v60,2013-01-20 13:54:00,
2013-01-20 08:00:00,10.0,7.7,30.52,NE,45,0.0,9.0,90,0.00,,,-99.99,Weather View 32 v60,2013-01-20 14:00:00,
2013-01-20 08:15:00,10.0,8.4,30.53,NE,45,0.0,9.0,93,0.00,,,-99.99,Weather View 32 v60,2013-01-20 14:15:00,
2013-01-20 08:30:00,10.0,8.9,30.53,ENE,67,0.0,9.0,95,0.00,,,-99.99,Weather View 32 v60,2013-01-20 14:30:00,
2013-01-20 08:45:00,10.0,9.3,30.53,ENE,67,0.0,9.0,97,0.00,,,-99.99,Weather View 32 v60,2013-01-20 14:45:00,
2013-01-20 09:00:00,10.0,9.8,30.53,ENE,67,0.0,7.0,99,0.00,,,-99.99,Weather View 32 v60,2013-01-20 15:00:00,
2013-01-20 09:15:00,10.0,9.3,30.54,NE,45,0.0,4.0,97,0.00,,,-99.99,Weather View 32 v60,2013-01-20 15:15:00,
2013-01-20 09:30:00,11.0,9.9,30.54,NNW,337,0.0,0.0,95,0.00,,,-99.99,Weather View 32 v60,2013-01-20 15:30:00,
2013-01-20 09:45:00,11.0,10.5,30.55,NNE,22,0.0,0.0,98,0.00,,,-99.99,Weather View 32 v60,2013-01-20 15:45:00,
2013-01-20 10:00:00,11.0,10.8,30.56,NE,45,0.0,0.0,99,0.00,,,-99.99,Weather View 32 v60,2013-01-20 16:00:00,
2013-01-20 10:15:00,11.0,11.0,30.56,NNW,337,0.0,0.0,100,0.00,,,-99.99,Weather View 32 v60,2013-01-20 16:15:00,
2013-01-20 10:30:00,11.0,11.0,30.57,NW,315,0.0,0.0,100,0.00,,,-99.99,Weather View 32 v60,2013-01-20 16:30:00,
2013-01-20 10:45:00,11.0,11.0,30.57,NNE,22,0.0,8.0,100,0.00,,,-99.99,Weather View 32 v60,2013-01-20 16:45:00,
2013-01-20 11:00:00,11.0,11.0,30.58,NNW,337,0.0,8.0,100,0.00,,,-99.99,Weather View 32 v60,2013-01-20 17:00:00,
2013-01-20 11:15:00,11.0,11.0,30.58,NNW,337,0.0,8.0,100,0.00,,,-99.99,Weather View 32 v60,2013-01-20 17:15:00,
2013-01-20 11:30:00,11.0,11.0,30.58,NNW,337,4.0,11.0,100,0.00,,,-99.99,Weather View 32 v60,2013-01-20 17:30:00,
2013-01-20 11:45:00,12.0,12.0,30.57,WNW,292,6.0,11.0,100,0.00,,,-99.99,Weather View 32 v60,2013-01-20 17:45:00,
2013-01-20 12:00:00,12.0,11.5,30.57,WNW,292,7.0,11.0,98,0.00,,,-99.99,Weather View 32 v60,2013-01-20 18:00:00,
2013-01-20 12:15:00,13.0,12.1,30.56,NW,315,10.0,11.0,96,0.00,,,-99.99,Weather View 32 v60,2013-01-20 18:15:00,
2013-01-20 12:30:00,12.0,11.8,30.57,NW,315,0.0,13.0,99,0.00,,,-99.99,Weather View 32 v60,2013-01-20 18:30:00,
2013-01-20 12:45:00,12.0,11.5,30.56,NNW,337,4.0,13.0,98,0.00,,,-99.99,Weather View 32 v60,2013-01-20 18:45:00,
2013-01-20 13:00:00,13.0,11.8,30.56,West,270,0.0,13.0,95,0.00,,,-99.99,Weather View 32 v60,2013-01-20 19:00:00,
2013-01-20 13:15:00,12.0,10.8,30.55,WNW,292,9.0,15.0,95,0.00,,,-99.99,Weather View 32 v60,2013-01-20 19:15:00,
2013-01-20 13:30:00,12.0,10.1,30.56,North,360,3.0,16.0,92,0.00,,,-99.99,Weather View 32 v60,2013-01-20 19:30:00,
2013-01-20 13:45:00,12.0,10.1,30.55,NNW,337,2.0,16.0,92,0.00,,,-99.99,Weather View 32 v60,2013-01-20 19:45:00,
2013-01-20 14:00:00,12.0,10.6,30.55,NNW,337,6.0,17.0,94,0.00,,,-99.99,Weather View 32 v60,2013-01-20 20:00:00,
2013-01-20 14:15:00,13.0,10.6,30.56,NW,315,8.0,17.0,90,0.00,,,-99.99,Weather View 32 v60,2013-01-20 20:15:00,
2013-01-20 14:30:00,13.0,10.4,30.54,WNW,292,12.0,17.0,89,0.00,,,-99.99,Weather View 32 v60,2013-01-20 20:30:00,
2013-01-20 14:45:00,13.0,10.1,30.54,West,270,1.0,17.0,88,0.00,,,-99.99,Weather View 32 v60,2013-01-20 20:45:00,
2013-01-20 15:00:00,13.0,10.4,30.54,NNW,337,10.0,17.0,89,0.00,,,-99.99,Weather View 32 v60,2013-01-20 21:00:00,
2013-01-20 15:15:00,13.0,10.4,30.54,North,360,4.0,17.0,89,0.00,,,-99.99,Weather View 32 v60,2013-01-20 21:15:00,
2013-01-20 15:30:00,13.0,9.9,30.53,WSW,247,0.0,18.0,87,0.00,,,-99.99,Weather View 32 v60,2013-01-20 21:30:00,
2013-01-20 15:45:00,14.0,10.1,30.54,North,360,9.0,18.0,84,0.00,,,-99.99,Weather View 32 v60,2013-01-20 21:45:00,
2013-01-20 16:00:00,12.0,8.6,30.55,WNW,292,7.0,18.0,86,0.00,,,-99.99,Weather View 32 v60,2013-01-20 22:00:00,
2013-01-20 16:15:00,12.0,9.1,30.55,WNW,292,0.0,18.0,88,0.00,,,-99.99,Weather View 32 v60,2013-01-20 22:15:00,
2013-01-20 16:30:00,12.0,9.1,30.55,NNW,337,0.0,17.0,88,0.00,,,-99.99,Weather View 32 v60,2013-01-20 22:30:00,
2013-01-20 16:45:00,12.0,9.1,30.54,NNW,337,4.0,17.0,88,0.00,,,-99.99,Weather View 32 v60,2013-01-20 22:45:00,
2013-01-20 17:00:00,12.0,9.4,30.54,NNW,337,3.0,16.0,89,0.00,,,-99.99,Weather View 32 v60,2013-01-20 23:00:00,
2013-01-20 17:15:00,11.0,8.6,30.54,WNW,292,0.0,16.0,90,0.00,,,-99.99,Weather View 32 v60,2013-01-20 23:15:00,
2013-01-20 17:30:00,10.0,8.4,30.55,NNW,337,0.0,16.0,93,0.00,,,-99.99,Weather View 32 v60,2013-01-20 23:30:00,
2013-01-20 17:45:00,10.0,8.9,30.55,NNE,22,0.0,9.0,95,0.00,,,-99.99,Weather View 32 v60,2013-01-20 23:45:00,
2013-01-20 18:00:00,9.0,8.1,30.56,NW,315,0.0,9.0,96,0.00,,,-99.99,Weather View 32 v60,2013-01-21 00:00:00,
2013-01-20 18:15:00,9.0,8.3,30.56,NNW,337,0.0,8.0,97,0.00,,,-99.99,Weather View 32 v60,2013-01-21 00:15:00,
2013-01-20 18:30:00,10.0,9.3,30.56,NNW,337,0.0,8.0,97,0.00,,,-99.99,Weather View 32 v60,2013-01-21 00:30:00,
2013-01-20 18:45:00,11.0,10.1,30.55,NNW,337,0.0,10.0,96,0.00,,,-99.99,Weather View 32 v60,2013-01-21 00:45:00,
2013-01-20 19:00:00,11.0,10.3,30.54,NW,315,4.0,10.0,97,0.00,,,-99.99,Weather View 32 v60,2013-01-21 01:00:00,
2013-01-20 19:15:00,10.0,9.8,30.55,NNW,337,0.0,10.0,99,0.00,,,-99.99,Weather View 32 v60,2013-01-21 01:15:00,
2013-01-20 19:30:00,10.0,10.0,30.55,NW,315,0.0,10.0,100,0.00,,,-99.99,Weather View 32 v60,2013-01-21 01:30:00,
2013-01-20 19:46:00,10.0,10.0,30.55,WNW,292,0.0,7.0,100,0.00,,,-99.99,Weather View 32 v60,2013-01-21 01:46:00,
2013-01-20 20:01:00,10.0,10.0,30.54,NW,315,0.0,6.0,100,0.00,,,-99.99,Weather View 32 v60,2013-01-21 02:01:00,
2013-01-20 20:15:00,11.0,11.0,30.54,WSW,247,0.0,7.0,100,0.00,,,-99.99,Weather View 32 v60,2013-01-21 02:15:00,
2013-01-20 20:30:00,11.0,11.0,30.54,NNW,337,0.0,10.0,100,0.00,,,-99.99,Weather View 32 v60,2013-01-21 02:30:00,
2013-01-20 20:45:00,11.0,11.0,30.54,NNW,337,9.0,13.0,100,0.00,,,-99.99,Weather View 32 v60,2013-01-21 02:45:00,
2013-01-20 21:00:00,12.0,10.6,30.53,WNW,292,0.0,13.0,94,0.00,,,-99.99,Weather View 32 v60,2013-01-21 03:00:00,
2013-01-20 21:15:00,12.0,9.6,30.53,NW,315,1.0,20.0,90,0.00,,,-99.99,Weather View 32 v60,2013-01-21 03:15:00,
2013-01-20 21:30:00,11.0,8.9,30.53,WNW,292,7.0,20.0,91,0.00,,,-99.99,Weather View 32 v60,2013-01-21 03:30:00,
2013-01-20 21:45:00,11.0,8.9,30.53,NW,315,6.0,20.0,91,0.00,,,-99.99,Weather View 32 v60,2013-01-21 03:45:00,
2013-01-20 22:00:00,10.0,5.9,30.54,NNW,337,8.0,23.0,83,0.00,,,-99.99,Weather View 32 v60,2013-01-21 04:00:00,
2013-01-20 22:15:00,8.0,3.1,30.54,North,360,17.0,24.0,80,0.00,,,-99.99,Weather View 32 v60,2013-01-21 04:15:00,
2013-01-20 22:30:00,7.0,1.9,30.56,WNW,292,10.0,25.0,79,0.00,,,-99.99,Weather View 32 v60,2013-01-21 04:30:00,
2013-01-20 22:45:00,7.0,1.6,30.56,WNW,292,9.0,25.0,78,0.00,,,-99.99,Weather View 32 v60,2013-01-21 04:45:00,
2013-01-20 23:01:00,6.0,1.4,30.57,NW,315,3.0,25.0,81,0.00,,,-99.99,Weather View 32 v60,2013-01-21 05:01:00,
2013-01-20 23:03:00,6.0,1.4,30.57,NW,315,3.0,25.0,81,0.00,,,-99.99,Weather View 32 v60,2013-01-21 05:03:00,
2013-01-20 23:15:00,5.0,1.2,30.58,NW,315,16.0,25.0,84,0.00,,,-99.99,Weather View 32 v60,2013-01-21 05:15:00,
2013-01-20 23:30:00,5.0,0.2,30.57,WNW,292,7.0,30.0,80,0.00,,,-99.99,Weather View 32 v60,2013-01-21 05:30:00,
2013-01-20 23:45:00,4.0,0.3,30.58,NW,315,0.0,30.0,84,0.00,,,-99.99,Weather View 32 v60,2013-01-21 05:45:00,